sensor_id;sensor_type;location;lat;lon;timestamp;P1;durP1;ratioP1;P2;durP2;ratioP2
45206;SDS011;30950;53.086;21.576;2023-06-26T00:00:13;15.65;;;8.05;;
45206;SDS011;30950;53.086;21.576;2023-06-26T00:03:01;10.27;;;7.88;;
45206;SDS011;30950;53.086;21.576;2023-06-26T00:05:29;10.30;;;8.50;;
45206;SDS011;30950;53.086;21.576;2023-06-26T00:07:57;9.55;;;8.25;;
45206;SDS011;30950;53.086;21.576;2023-06-26T00:10:27;13.32;;;8.40;;
45206;SDS011;30950;53.086;21.576;2023-06-26T00:12:55;10.48;;;8.85;;
45206;SDS011;30950;53.086;21.576;2023-06-26T00:15:22;10.48;;;8.77;;
45206;SDS011;30950;53.086;21.576;2023-06-26T00:17:49;11.68;;;9.52;;
45206;SDS011;30950;53.086;21.576;2023-06-26T00:20:17;13.30;;;10.05;;
45206;SDS011;30950;53.086;21.576;2023-06-26T00:22:45;13.60;;;8.88;;
45206;SDS011;30950;53.086;21.576;2023-06-26T00:25:13;12.98;;;8.52;;
45206;SDS011;30950;53.086;21.576;2023-06-26T00:27:40;11.25;;;8.57;;
45206;SDS011;30950;53.086;21.576;2023-06-26T00:30:09;13.63;;;8.70;;
45206;SDS011;30950;53.086;21.576;2023-06-26T00:32:37;11.20;;;8.05;;
45206;SDS011;30950;53.086;21.576;2023-06-26T00:35:05;12.95;;;8.50;;
45206;SDS011;30950;53.086;21.576;2023-06-26T00:37:33;13.35;;;9.02;;
45206;SDS011;30950;53.086;21.576;2023-06-26T00:40:00;13.65;;;8.98;;
45206;SDS011;30950;53.086;21.576;2023-06-26T00:42:28;9.40;;;8.00;;
45206;SDS011;30950;53.086;21.576;2023-06-26T00:44:56;12.25;;;8.27;;
45206;SDS011;30950;53.086;21.576;2023-06-26T00:47:24;11.60;;;8.90;;
45206;SDS011;30950;53.086;21.576;2023-06-26T00:49:52;11.32;;;8.95;;
45206;SDS011;30950;53.086;21.576;2023-06-26T00:52:21;11.82;;;9.43;;
45206;SDS011;30950;53.086;21.576;2023-06-26T00:54:50;12.20;;;8.25;;
45206;SDS011;30950;53.086;21.576;2023-06-26T00:57:18;9.77;;;7.38;;
45206;SDS011;30950;53.086;21.576;2023-06-26T00:59:45;10.75;;;8.05;;
45206;SDS011;30950;53.086;21.576;2023-06-26T01:02:13;12.90;;;8.43;;
45206;SDS011;30950;53.086;21.576;2023-06-26T01:04:44;14.95;;;8.75;;
45206;SDS011;30950;53.086;21.576;2023-06-26T01:07:14;10.02;;;8.32;;
45206;SDS011;30950;53.086;21.576;2023-06-26T01:09:42;11.35;;;8.27;;
45206;SDS011;30950;53.086;21.576;2023-06-26T01:12:10;10.82;;;8.38;;
45206;SDS011;30950;53.086;21.576;2023-06-26T01:14:37;10.13;;;7.53;;
45206;SDS011;30950;53.086;21.576;2023-06-26T01:17:05;10.13;;;8.25;;
45206;SDS011;30950;53.086;21.576;2023-06-26T01:19:34;11.65;;;8.32;;
45206;SDS011;30950;53.086;21.576;2023-06-26T01:27:49;11.77;;;9.30;;
45206;SDS011;30950;53.086;21.576;2023-06-26T01:30:19;9.82;;;8.02;;
45206;SDS011;30950;53.086;21.576;2023-06-26T01:32:48;11.57;;;8.65;;
45206;SDS011;30950;53.086;21.576;2023-06-26T01:35:16;10.15;;;8.57;;
45206;SDS011;30950;53.086;21.576;2023-06-26T01:37:44;11.63;;;9.00;;
45206;SDS011;30950;53.086;21.576;2023-06-26T01:40:11;10.45;;;8.40;;
45206;SDS011;30950;53.086;21.576;2023-06-26T01:42:40;11.95;;;9.07;;
45206;SDS011;30950;53.086;21.576;2023-06-26T01:45:10;11.00;;;8.43;;
45206;SDS011;30950;53.086;21.576;2023-06-26T01:47:48;12.73;;;9.75;;
45206;SDS011;30950;53.086;21.576;2023-06-26T01:50:18;12.85;;;8.77;;
45206;SDS011;30950;53.086;21.576;2023-06-26T01:55:47;15.35;;;9.48;;
45206;SDS011;30950;53.086;21.576;2023-06-26T01:58:20;11.20;;;8.13;;
45206;SDS011;30950;53.086;21.576;2023-06-26T02:00:50;17.50;;;8.27;;
45206;SDS011;30950;53.086;21.576;2023-06-26T02:03:18;9.77;;;7.57;;
45206;SDS011;30950;53.086;21.576;2023-06-26T02:05:47;12.50;;;8.77;;
45206;SDS011;30950;53.086;21.576;2023-06-26T02:08:14;11.90;;;8.30;;
45206;SDS011;30950;53.086;21.576;2023-06-26T02:10:47;11.48;;;9.07;;
45206;SDS011;30950;53.086;21.576;2023-06-26T02:13:16;8.73;;;7.28;;
45206;SDS011;30950;53.086;21.576;2023-06-26T02:15:43;10.13;;;8.27;;
45206;SDS011;30950;53.086;21.576;2023-06-26T02:18:10;12.95;;;8.05;;
45206;SDS011;30950;53.086;21.576;2023-06-26T02:20:38;13.93;;;8.95;;
45206;SDS011;30950;53.086;21.576;2023-06-26T02:23:07;9.50;;;7.22;;
45206;SDS011;30950;53.086;21.576;2023-06-26T02:25:35;9.40;;;7.70;;
45206;SDS011;30950;53.086;21.576;2023-06-26T02:28:02;12.48;;;8.27;;
45206;SDS011;30950;53.086;21.576;2023-06-26T02:30:29;12.57;;;8.63;;
45206;SDS011;30950;53.086;21.576;2023-06-26T02:32:59;9.65;;;7.70;;
45206;SDS011;30950;53.086;21.576;2023-06-26T02:35:26;12.38;;;7.95;;
45206;SDS011;30950;53.086;21.576;2023-06-26T02:37:54;8.60;;;7.40;;
45206;SDS011;30950;53.086;21.576;2023-06-26T02:40:22;8.38;;;7.18;;
45206;SDS011;30950;53.086;21.576;2023-06-26T02:42:51;11.30;;;8.05;;
45206;SDS011;30950;53.086;21.576;2023-06-26T02:45:19;11.55;;;7.35;;
45206;SDS011;30950;53.086;21.576;2023-06-26T02:47:47;8.70;;;7.57;;
45206;SDS011;30950;53.086;21.576;2023-06-26T02:50:14;8.45;;;7.07;;
45206;SDS011;30950;53.086;21.576;2023-06-26T02:53:11;10.00;;;8.10;;
45206;SDS011;30950;53.086;21.576;2023-06-26T02:55:42;10.38;;;7.55;;
45206;SDS011;30950;53.086;21.576;2023-06-26T02:58:10;10.38;;;8.18;;
45206;SDS011;30950;53.086;21.576;2023-06-26T03:00:38;10.95;;;7.20;;
45206;SDS011;30950;53.086;21.576;2023-06-26T03:03:12;8.38;;;7.07;;
45206;SDS011;30950;53.086;21.576;2023-06-26T03:05:40;10.85;;;7.75;;
45206;SDS011;30950;53.086;21.576;2023-06-26T03:08:08;9.25;;;7.93;;
45206;SDS011;30950;53.086;21.576;2023-06-26T03:10:35;8.45;;;7.30;;
45206;SDS011;30950;53.086;21.576;2023-06-26T03:13:03;9.48;;;7.72;;
45206;SDS011;30950;53.086;21.576;2023-06-26T03:15:31;8.40;;;7.00;;
45206;SDS011;30950;53.086;21.576;2023-06-26T03:17:58;10.95;;;7.20;;
45206;SDS011;30950;53.086;21.576;2023-06-26T03:20:28;9.85;;;7.28;;
45206;SDS011;30950;53.086;21.576;2023-06-26T03:22:57;11.60;;;7.60;;
45206;SDS011;30950;53.086;21.576;2023-06-26T03:25:25;8.68;;;7.35;;
45206;SDS011;30950;53.086;21.576;2023-06-26T03:28:19;9.55;;;7.90;;
45206;SDS011;30950;53.086;21.576;2023-06-26T03:30:47;8.45;;;6.85;;
45206;SDS011;30950;53.086;21.576;2023-06-26T03:33:15;10.43;;;7.15;;
45206;SDS011;30950;53.086;21.576;2023-06-26T03:35:43;9.27;;;6.72;;
45206;SDS011;30950;53.086;21.576;2023-06-26T03:38:13;9.85;;;7.57;;
45206;SDS011;30950;53.086;21.576;2023-06-26T03:40:42;9.52;;;7.45;;
45206;SDS011;30950;53.086;21.576;2023-06-26T03:43:10;10.32;;;7.28;;
45206;SDS011;30950;53.086;21.576;2023-06-26T03:45:45;10.80;;;8.13;;
45206;SDS011;30950;53.086;21.576;2023-06-26T03:48:13;10.70;;;8.02;;
45206;SDS011;30950;53.086;21.576;2023-06-26T03:50:41;11.13;;;8.15;;
45206;SDS011;30950;53.086;21.576;2023-06-26T03:53:08;10.10;;;7.55;;
45206;SDS011;30950;53.086;21.576;2023-06-26T03:55:36;12.27;;;7.82;;
45206;SDS011;30950;53.086;21.576;2023-06-26T03:58:05;13.43;;;8.85;;
45206;SDS011;30950;53.086;21.576;2023-06-26T04:00:32;10.20;;;7.97;;
45206;SDS011;30950;53.086;21.576;2023-06-26T04:03:00;10.65;;;7.68;;
45206;SDS011;30950;53.086;21.576;2023-06-26T04:05:30;9.88;;;8.27;;
45206;SDS011;30950;53.086;21.576;2023-06-26T04:07:58;9.45;;;7.70;;
45206;SDS011;30950;53.086;21.576;2023-06-26T04:10:25;11.85;;;7.53;;
45206;SDS011;30950;53.086;21.576;2023-06-26T04:12:54;10.05;;;8.95;;
45206;SDS011;30950;53.086;21.576;2023-06-26T04:15:21;11.52;;;8.40;;
45206;SDS011;30950;53.086;21.576;2023-06-26T04:17:49;14.57;;;9.25;;
45206;SDS011;30950;53.086;21.576;2023-06-26T04:20:16;11.75;;;9.35;;
45206;SDS011;30950;53.086;21.576;2023-06-26T04:22:44;11.48;;;8.55;;
45206;SDS011;30950;53.086;21.576;2023-06-26T04:25:11;10.50;;;8.80;;
45206;SDS011;30950;53.086;21.576;2023-06-26T04:27:39;15.32;;;8.23;;
45206;SDS011;30950;53.086;21.576;2023-06-26T04:30:07;13.30;;;8.15;;
45206;SDS011;30950;53.086;21.576;2023-06-26T04:32:36;10.05;;;7.57;;
45206;SDS011;30950;53.086;21.576;2023-06-26T04:35:03;10.52;;;7.53;;
45206;SDS011;30950;53.086;21.576;2023-06-26T04:37:31;12.68;;;7.55;;
45206;SDS011;30950;53.086;21.576;2023-06-26T04:39:58;9.70;;;8.05;;
45206;SDS011;30950;53.086;21.576;2023-06-26T04:42:26;11.23;;;8.02;;
45206;SDS011;30950;53.086;21.576;2023-06-26T04:44:53;9.02;;;7.13;;
45206;SDS011;30950;53.086;21.576;2023-06-26T04:47:21;10.30;;;7.63;;
45206;SDS011;30950;53.086;21.576;2023-06-26T04:49:48;11.35;;;8.07;;
45206;SDS011;30950;53.086;21.576;2023-06-26T04:52:16;9.25;;;7.32;;
45206;SDS011;30950;53.086;21.576;2023-06-26T04:54:43;12.73;;;7.50;;
45206;SDS011;30950;53.086;21.576;2023-06-26T04:57:10;10.30;;;6.97;;
45206;SDS011;30950;53.086;21.576;2023-06-26T04:59:38;8.40;;;6.88;;
45206;SDS011;30950;53.086;21.576;2023-06-26T05:02:06;7.35;;;6.45;;
45206;SDS011;30950;53.086;21.576;2023-06-26T05:04:33;10.02;;;7.55;;
45206;SDS011;30950;53.086;21.576;2023-06-26T05:07:01;8.93;;;6.30;;
45206;SDS011;30950;53.086;21.576;2023-06-26T05:09:28;14.45;;;7.40;;
45206;SDS011;30950;53.086;21.576;2023-06-26T05:11:56;6.90;;;6.20;;
45206;SDS011;30950;53.086;21.576;2023-06-26T05:14:24;7.60;;;6.55;;
45206;SDS011;30950;53.086;21.576;2023-06-26T05:16:54;8.02;;;6.18;;
45206;SDS011;30950;53.086;21.576;2023-06-26T05:19:21;8.90;;;6.70;;
45206;SDS011;30950;53.086;21.576;2023-06-26T05:21:49;9.30;;;6.72;;
45206;SDS011;30950;53.086;21.576;2023-06-26T05:24:18;8.48;;;6.80;;
45206;SDS011;30950;53.086;21.576;2023-06-26T05:26:48;9.90;;;6.85;;
45206;SDS011;30950;53.086;21.576;2023-06-26T05:29:16;10.82;;;7.00;;
45206;SDS011;30950;53.086;21.576;2023-06-26T05:31:43;9.38;;;6.85;;
45206;SDS011;30950;53.086;21.576;2023-06-26T05:34:12;9.45;;;6.57;;
45206;SDS011;30950;53.086;21.576;2023-06-26T05:36:41;9.18;;;6.53;;
45206;SDS011;30950;53.086;21.576;2023-06-26T05:39:10;8.32;;;6.25;;
45206;SDS011;30950;53.086;21.576;2023-06-26T05:41:38;8.45;;;6.28;;
45206;SDS011;30950;53.086;21.576;2023-06-26T05:44:05;8.43;;;6.53;;
45206;SDS011;30950;53.086;21.576;2023-06-26T05:46:33;12.48;;;7.65;;
45206;SDS011;30950;53.086;21.576;2023-06-26T05:49:00;8.98;;;6.32;;
45206;SDS011;30950;53.086;21.576;2023-06-26T05:51:28;8.52;;;6.28;;
45206;SDS011;30950;53.086;21.576;2023-06-26T05:53:56;8.00;;;6.15;;
45206;SDS011;30950;53.086;21.576;2023-06-26T05:56:24;6.28;;;4.80;;
45206;SDS011;30950;53.086;21.576;2023-06-26T05:58:51;9.05;;;6.50;;
45206;SDS011;30950;53.086;21.576;2023-06-26T06:01:21;7.35;;;5.40;;
45206;SDS011;30950;53.086;21.576;2023-06-26T06:03:48;9.07;;;5.57;;
45206;SDS011;30950;53.086;21.576;2023-06-26T06:06:18;9.13;;;5.90;;
45206;SDS011;30950;53.086;21.576;2023-06-26T06:08:46;6.72;;;5.05;;
45206;SDS011;30950;53.086;21.576;2023-06-26T06:11:15;7.35;;;5.28;;
45206;SDS011;30950;53.086;21.576;2023-06-26T06:13:43;7.00;;;4.88;;
45206;SDS011;30950;53.086;21.576;2023-06-26T06:16:10;8.65;;;4.90;;
45206;SDS011;30950;53.086;21.576;2023-06-26T06:18:37;8.75;;;5.78;;
45206;SDS011;30950;53.086;21.576;2023-06-26T06:21:05;7.80;;;5.85;;
45206;SDS011;30950;53.086;21.576;2023-06-26T06:23:32;7.40;;;4.95;;
45206;SDS011;30950;53.086;21.576;2023-06-26T06:26:00;7.28;;;5.47;;
45206;SDS011;30950;53.086;21.576;2023-06-26T06:28:27;7.72;;;6.43;;
45206;SDS011;30950;53.086;21.576;2023-06-26T06:30:55;6.78;;;5.25;;
45206;SDS011;30950;53.086;21.576;2023-06-26T06:33:22;8.25;;;5.68;;
45206;SDS011;30950;53.086;21.576;2023-06-26T06:35:50;6.10;;;4.90;;
45206;SDS011;30950;53.086;21.576;2023-06-26T06:38:17;6.63;;;5.05;;
45206;SDS011;30950;53.086;21.576;2023-06-26T06:40:45;12.50;;;5.47;;
45206;SDS011;30950;53.086;21.576;2023-06-26T06:43:12;5.95;;;4.93;;
45206;SDS011;30950;53.086;21.576;2023-06-26T06:45:40;6.50;;;4.95;;
45206;SDS011;30950;53.086;21.576;2023-06-26T06:48:07;6.40;;;4.95;;
45206;SDS011;30950;53.086;21.576;2023-06-26T06:50:34;8.75;;;4.93;;
45206;SDS011;30950;53.086;21.576;2023-06-26T06:53:02;7.65;;;5.82;;
45206;SDS011;30950;53.086;21.576;2023-06-26T06:55:30;7.07;;;5.28;;
45206;SDS011;30950;53.086;21.576;2023-06-26T06:57:57;6.22;;;4.18;;
45206;SDS011;30950;53.086;21.576;2023-06-26T07:00:25;6.80;;;4.57;;
45206;SDS011;30950;53.086;21.576;2023-06-26T07:02:53;9.20;;;4.72;;
45206;SDS011;30950;53.086;21.576;2023-06-26T07:05:21;5.30;;;4.38;;
45206;SDS011;30950;53.086;21.576;2023-06-26T07:07:48;8.30;;;4.60;;
45206;SDS011;30950;53.086;21.576;2023-06-26T07:10:16;5.75;;;4.60;;
45206;SDS011;30950;53.086;21.576;2023-06-26T07:12:43;8.32;;;4.50;;
45206;SDS011;30950;53.086;21.576;2023-06-26T07:15:11;6.00;;;3.97;;
45206;SDS011;30950;53.086;21.576;2023-06-26T07:17:39;6.90;;;3.90;;
45206;SDS011;30950;53.086;21.576;2023-06-26T07:20:06;6.43;;;4.63;;
45206;SDS011;30950;53.086;21.576;2023-06-26T07:22:35;5.30;;;3.95;;
45206;SDS011;30950;53.086;21.576;2023-06-26T07:25:03;8.05;;;5.05;;
45206;SDS011;30950;53.086;21.576;2023-06-26T07:27:39;5.50;;;4.55;;
45206;SDS011;30950;53.086;21.576;2023-06-26T07:30:08;7.05;;;5.13;;
45206;SDS011;30950;53.086;21.576;2023-06-26T07:32:36;5.70;;;4.88;;
45206;SDS011;30950;53.086;21.576;2023-06-26T07:35:04;7.80;;;4.70;;
45206;SDS011;30950;53.086;21.576;2023-06-26T07:37:32;6.28;;;4.55;;
45206;SDS011;30950;53.086;21.576;2023-06-26T07:39:59;7.35;;;4.63;;
45206;SDS011;30950;53.086;21.576;2023-06-26T07:42:26;6.65;;;4.63;;
45206;SDS011;30950;53.086;21.576;2023-06-26T07:44:54;7.47;;;4.88;;
45206;SDS011;30950;53.086;21.576;2023-06-26T07:47:21;8.07;;;5.07;;
45206;SDS011;30950;53.086;21.576;2023-06-26T07:49:49;7.93;;;5.60;;
45206;SDS011;30950;53.086;21.576;2023-06-26T07:52:17;6.50;;;4.03;;
45206;SDS011;30950;53.086;21.576;2023-06-26T07:54:45;6.68;;;4.07;;
45206;SDS011;30950;53.086;21.576;2023-06-26T07:57:13;7.10;;;5.70;;
45206;SDS011;30950;53.086;21.576;2023-06-26T07:59:40;7.25;;;6.50;;
45206;SDS011;30950;53.086;21.576;2023-06-26T08:02:08;5.88;;;4.40;;
45206;SDS011;30950;53.086;21.576;2023-06-26T08:04:35;6.50;;;3.78;;
45206;SDS011;30950;53.086;21.576;2023-06-26T08:07:03;5.03;;;3.60;;
45206;SDS011;30950;53.086;21.576;2023-06-26T08:09:31;4.90;;;3.80;;
45206;SDS011;30950;53.086;21.576;2023-06-26T08:11:59;5.90;;;4.30;;
45206;SDS011;30950;53.086;21.576;2023-06-26T08:14:27;5.07;;;4.05;;
45206;SDS011;30950;53.086;21.576;2023-06-26T08:16:54;5.85;;;4.07;;
45206;SDS011;30950;53.086;21.576;2023-06-26T08:19:22;4.95;;;3.85;;
45206;SDS011;30950;53.086;21.576;2023-06-26T08:21:49;5.30;;;4.00;;
45206;SDS011;30950;53.086;21.576;2023-06-26T08:24:17;5.07;;;3.60;;
45206;SDS011;30950;53.086;21.576;2023-06-26T08:26:46;8.13;;;4.30;;
45206;SDS011;30950;53.086;21.576;2023-06-26T08:29:14;7.22;;;4.00;;
45206;SDS011;30950;53.086;21.576;2023-06-26T08:31:42;6.18;;;3.80;;
45206;SDS011;30950;53.086;21.576;2023-06-26T08:34:11;5.22;;;4.35;;
45206;SDS011;30950;53.086;21.576;2023-06-26T08:36:38;5.53;;;4.20;;
45206;SDS011;30950;53.086;21.576;2023-06-26T08:39:06;6.57;;;3.90;;
45206;SDS011;30950;53.086;21.576;2023-06-26T08:41:35;5.97;;;3.58;;
45206;SDS011;30950;53.086;21.576;2023-06-26T08:44:03;5.38;;;3.88;;
45206;SDS011;30950;53.086;21.576;2023-06-26T08:46:31;5.15;;;4.18;;
45206;SDS011;30950;53.086;21.576;2023-06-26T08:52:50;7.07;;;3.60;;
45206;SDS011;30950;53.086;21.576;2023-06-26T08:55:01;7.22;;;4.10;;
45206;SDS011;30950;53.086;21.576;2023-06-26T08:57:33;6.30;;;4.63;;
45206;SDS011;30950;53.086;21.576;2023-06-26T09:00:01;5.05;;;3.63;;
45206;SDS011;30950;53.086;21.576;2023-06-26T09:02:29;5.10;;;3.95;;
45206;SDS011;30950;53.086;21.576;2023-06-26T09:04:57;5.75;;;4.30;;
45206;SDS011;30950;53.086;21.576;2023-06-26T09:07:24;5.60;;;3.88;;
45206;SDS011;30950;53.086;21.576;2023-06-26T09:09:52;5.35;;;3.92;;
45206;SDS011;30950;53.086;21.576;2023-06-26T09:12:20;4.97;;;3.83;;
45206;SDS011;30950;53.086;21.576;2023-06-26T09:14:48;4.45;;;3.40;;
45206;SDS011;30950;53.086;21.576;2023-06-26T09:17:16;4.25;;;3.47;;
45206;SDS011;30950;53.086;21.576;2023-06-26T09:19:47;4.32;;;3.35;;
45206;SDS011;30950;53.086;21.576;2023-06-26T09:22:17;5.25;;;3.40;;
45206;SDS011;30950;53.086;21.576;2023-06-26T09:24:45;4.97;;;3.85;;
45206;SDS011;30950;53.086;21.576;2023-06-26T09:27:12;5.30;;;3.47;;
45206;SDS011;30950;53.086;21.576;2023-06-26T09:29:40;4.60;;;3.35;;
45206;SDS011;30950;53.086;21.576;2023-06-26T09:32:08;5.78;;;4.22;;
45206;SDS011;30950;53.086;21.576;2023-06-26T09:34:36;5.40;;;3.67;;
45206;SDS011;30950;53.086;21.576;2023-06-26T09:37:07;5.45;;;3.47;;
45206;SDS011;30950;53.086;21.576;2023-06-26T09:39:35;4.18;;;2.97;;
45206;SDS011;30950;53.086;21.576;2023-06-26T09:42:02;4.90;;;3.20;;
45206;SDS011;30950;53.086;21.576;2023-06-26T09:44:33;5.53;;;3.88;;
45206;SDS011;30950;53.086;21.576;2023-06-26T09:47:01;5.28;;;3.75;;
45206;SDS011;30950;53.086;21.576;2023-06-26T09:49:31;5.47;;;3.70;;
45206;SDS011;30950;53.086;21.576;2023-06-26T09:51:59;3.83;;;2.90;;
45206;SDS011;30950;53.086;21.576;2023-06-26T09:54:32;4.35;;;3.05;;
45206;SDS011;30950;53.086;21.576;2023-06-26T09:57:09;5.35;;;3.28;;
45206;SDS011;30950;53.086;21.576;2023-06-26T09:59:37;4.25;;;3.20;;
45206;SDS011;30950;53.086;21.576;2023-06-26T10:02:05;4.57;;;3.47;;
45206;SDS011;30950;53.086;21.576;2023-06-26T10:04:35;3.95;;;2.90;;
45206;SDS011;30950;53.086;21.576;2023-06-26T10:07:07;3.70;;;2.72;;
45206;SDS011;30950;53.086;21.576;2023-06-26T10:09:41;4.18;;;3.30;;
45206;SDS011;30950;53.086;21.576;2023-06-26T10:12:17;4.32;;;3.15;;
45206;SDS011;30950;53.086;21.576;2023-06-26T10:14:49;3.45;;;2.58;;
45206;SDS011;30950;53.086;21.576;2023-06-26T10:17:19;3.80;;;2.78;;
45206;SDS011;30950;53.086;21.576;2023-06-26T10:19:50;4.32;;;3.30;;
45206;SDS011;30950;53.086;21.576;2023-06-26T10:22:20;4.75;;;3.30;;
45206;SDS011;30950;53.086;21.576;2023-06-26T10:24:51;4.38;;;3.10;;
45206;SDS011;30950;53.086;21.576;2023-06-26T10:27:23;4.50;;;2.85;;
45206;SDS011;30950;53.086;21.576;2023-06-26T10:29:54;4.72;;;3.20;;
45206;SDS011;30950;53.086;21.576;2023-06-26T10:32:24;3.65;;;2.80;;
45206;SDS011;30950;53.086;21.576;2023-06-26T10:34:53;4.00;;;2.75;;
45206;SDS011;30950;53.086;21.576;2023-06-26T10:37:40;3.83;;;2.88;;
45206;SDS011;30950;53.086;21.576;2023-06-26T10:40:12;4.30;;;3.10;;
45206;SDS011;30950;53.086;21.576;2023-06-26T10:42:41;6.47;;;3.92;;
45206;SDS011;30950;53.086;21.576;2023-06-26T10:45:30;4.10;;;3.10;;
45206;SDS011;30950;53.086;21.576;2023-06-26T10:47:57;4.72;;;3.30;;
45206;SDS011;30950;53.086;21.576;2023-06-26T10:50:26;4.50;;;2.90;;
45206;SDS011;30950;53.086;21.576;2023-06-26T10:56:01;4.13;;;3.00;;
45206;SDS011;30950;53.086;21.576;2023-06-26T11:03:44;3.38;;;2.67;;
45206;SDS011;30950;53.086;21.576;2023-06-26T11:06:19;4.07;;;2.90;;
45206;SDS011;30950;53.086;21.576;2023-06-26T11:08:51;4.75;;;3.28;;
45206;SDS011;30950;53.086;21.576;2023-06-26T11:14:21;4.25;;;3.20;;
45206;SDS011;30950;53.086;21.576;2023-06-26T11:16:50;3.60;;;3.00;;
45206;SDS011;30950;53.086;21.576;2023-06-26T11:19:18;3.70;;;2.80;;
45206;SDS011;30950;53.086;21.576;2023-06-26T11:21:48;3.90;;;3.08;;
45206;SDS011;30950;53.086;21.576;2023-06-26T11:24:16;3.95;;;3.05;;
45206;SDS011;30950;53.086;21.576;2023-06-26T11:26:44;3.75;;;2.92;;
45206;SDS011;30950;53.086;21.576;2023-06-26T11:29:13;4.32;;;3.15;;
45206;SDS011;30950;53.086;21.576;2023-06-26T11:31:41;5.07;;;3.60;;
45206;SDS011;30950;53.086;21.576;2023-06-26T11:34:12;6.57;;;3.05;;
45206;SDS011;30950;53.086;21.576;2023-06-26T11:36:41;4.18;;;2.72;;
45206;SDS011;30950;53.086;21.576;2023-06-26T11:39:09;5.78;;;3.28;;
45206;SDS011;30950;53.086;21.576;2023-06-26T11:41:40;3.80;;;2.90;;
45206;SDS011;30950;53.086;21.576;2023-06-26T11:44:08;5.13;;;3.00;;
45206;SDS011;30950;53.086;21.576;2023-06-26T11:46:37;4.18;;;3.22;;
45206;SDS011;30950;53.086;21.576;2023-06-26T11:49:05;5.15;;;3.58;;
45206;SDS011;30950;53.086;21.576;2023-06-26T11:54:29;5.03;;;2.92;;
45206;SDS011;30950;53.086;21.576;2023-06-26T11:56:58;4.68;;;2.90;;
45206;SDS011;30950;53.086;21.576;2023-06-26T11:59:36;4.80;;;2.78;;
45206;SDS011;30950;53.086;21.576;2023-06-26T12:02:05;4.78;;;2.90;;
45206;SDS011;30950;53.086;21.576;2023-06-26T12:04:33;3.70;;;2.85;;
45206;SDS011;30950;53.086;21.576;2023-06-26T12:07:04;3.95;;;2.83;;
45206;SDS011;30950;53.086;21.576;2023-06-26T12:09:38;4.55;;;3.10;;
45206;SDS011;30950;53.086;21.576;2023-06-26T12:12:10;3.42;;;2.63;;
45206;SDS011;30950;53.086;21.576;2023-06-26T12:14:38;3.78;;;2.80;;
45206;SDS011;30950;53.086;21.576;2023-06-26T12:17:09;4.07;;;2.72;;
45206;SDS011;30950;53.086;21.576;2023-06-26T12:19:38;4.10;;;2.88;;
45206;SDS011;30950;53.086;21.576;2023-06-26T12:22:15;4.10;;;3.17;;
45206;SDS011;30950;53.086;21.576;2023-06-26T12:24:44;3.58;;;2.85;;
45206;SDS011;30950;53.086;21.576;2023-06-26T12:27:13;5.55;;;2.72;;
45206;SDS011;30950;53.086;21.576;2023-06-26T12:29:52;3.67;;;2.88;;
45206;SDS011;30950;53.086;21.576;2023-06-26T12:32:24;5.65;;;3.22;;
45206;SDS011;30950;53.086;21.576;2023-06-26T12:34:53;6.55;;;3.38;;
45206;SDS011;30950;53.086;21.576;2023-06-26T12:37:23;3.58;;;2.83;;
45206;SDS011;30950;53.086;21.576;2023-06-26T12:39:56;4.45;;;2.88;;
45206;SDS011;30950;53.086;21.576;2023-06-26T12:42:25;3.70;;;2.67;;
45206;SDS011;30950;53.086;21.576;2023-06-26T12:44:54;6.47;;;3.42;;
45206;SDS011;30950;53.086;21.576;2023-06-26T12:47:26;4.97;;;3.10;;
45206;SDS011;30950;53.086;21.576;2023-06-26T12:49:55;4.22;;;2.80;;
45206;SDS011;30950;53.086;21.576;2023-06-26T12:52:24;4.30;;;2.83;;
45206;SDS011;30950;53.086;21.576;2023-06-26T12:54:55;3.80;;;3.00;;
45206;SDS011;30950;53.086;21.576;2023-06-26T12:57:23;3.70;;;3.08;;
45206;SDS011;30950;53.086;21.576;2023-06-26T12:59:51;5.82;;;2.70;;
45206;SDS011;30950;53.086;21.576;2023-06-26T13:02:18;3.50;;;2.80;;
45206;SDS011;30950;53.086;21.576;2023-06-26T13:04:46;3.75;;;3.08;;
45206;SDS011;30950;53.086;21.576;2023-06-26T13:07:13;4.00;;;2.90;;
45206;SDS011;30950;53.086;21.576;2023-06-26T13:09:41;5.80;;;3.00;;
45206;SDS011;30950;53.086;21.576;2023-06-26T13:12:08;5.68;;;3.50;;
45206;SDS011;30950;53.086;21.576;2023-06-26T13:14:36;4.32;;;3.10;;
45206;SDS011;30950;53.086;21.576;2023-06-26T13:17:05;4.15;;;3.13;;
45206;SDS011;30950;53.086;21.576;2023-06-26T13:19:35;4.03;;;3.03;;
45206;SDS011;30950;53.086;21.576;2023-06-26T13:22:03;4.03;;;3.00;;
45206;SDS011;30950;53.086;21.576;2023-06-26T13:24:30;4.65;;;3.08;;
45206;SDS011;30950;53.086;21.576;2023-06-26T13:26:58;6.18;;;3.15;;
45206;SDS011;30950;53.086;21.576;2023-06-26T13:29:25;4.35;;;3.15;;
45206;SDS011;30950;53.086;21.576;2023-06-26T13:31:53;4.10;;;2.90;;
45206;SDS011;30950;53.086;21.576;2023-06-26T13:34:21;4.72;;;3.13;;
45206;SDS011;30950;53.086;21.576;2023-06-26T13:36:55;4.20;;;3.28;;
45206;SDS011;30950;53.086;21.576;2023-06-26T13:39:23;3.83;;;3.30;;
45206;SDS011;30950;53.086;21.576;2023-06-26T13:41:51;4.22;;;3.10;;
45206;SDS011;30950;53.086;21.576;2023-06-26T13:44:18;4.30;;;3.10;;
45206;SDS011;30950;53.086;21.576;2023-06-26T13:46:56;4.93;;;3.33;;
45206;SDS011;30950;53.086;21.576;2023-06-26T13:49:23;3.63;;;3.00;;
45206;SDS011;30950;53.086;21.576;2023-06-26T13:51:51;3.97;;;3.15;;
45206;SDS011;30950;53.086;21.576;2023-06-26T13:54:18;4.30;;;3.15;;
45206;SDS011;30950;53.086;21.576;2023-06-26T13:56:46;4.38;;;3.30;;
45206;SDS011;30950;53.086;21.576;2023-06-26T13:59:13;4.13;;;3.33;;
45206;SDS011;30950;53.086;21.576;2023-06-26T14:01:41;4.68;;;3.30;;
45206;SDS011;30950;53.086;21.576;2023-06-26T14:04:10;3.80;;;2.97;;
45206;SDS011;30950;53.086;21.576;2023-06-26T14:06:38;4.20;;;3.20;;
45206;SDS011;30950;53.086;21.576;2023-06-26T14:09:05;3.97;;;3.10;;
45206;SDS011;30950;53.086;21.576;2023-06-26T14:11:34;5.05;;;3.38;;
45206;SDS011;30950;53.086;21.576;2023-06-26T14:14:02;4.00;;;3.20;;
45206;SDS011;30950;53.086;21.576;2023-06-26T14:16:29;5.95;;;3.45;;
45206;SDS011;30950;53.086;21.576;2023-06-26T14:18:57;4.05;;;2.97;;
45206;SDS011;30950;53.086;21.576;2023-06-26T14:21:24;4.97;;;3.38;;
45206;SDS011;30950;53.086;21.576;2023-06-26T14:23:52;5.00;;;2.97;;
45206;SDS011;30950;53.086;21.576;2023-06-26T14:26:20;5.30;;;3.05;;
45206;SDS011;30950;53.086;21.576;2023-06-26T14:28:47;3.97;;;2.97;;
45206;SDS011;30950;53.086;21.576;2023-06-26T14:31:15;6.28;;;3.08;;
45206;SDS011;30950;53.086;21.576;2023-06-26T14:33:42;4.43;;;3.33;;
45206;SDS011;30950;53.086;21.576;2023-06-26T14:36:10;5.07;;;3.20;;
45206;SDS011;30950;53.086;21.576;2023-06-26T14:38:37;4.18;;;3.05;;
45206;SDS011;30950;53.086;21.576;2023-06-26T14:41:05;3.83;;;3.03;;
45206;SDS011;30950;53.086;21.576;2023-06-26T14:43:32;3.80;;;2.83;;
45206;SDS011;30950;53.086;21.576;2023-06-26T14:46:00;5.13;;;3.30;;
45206;SDS011;30950;53.086;21.576;2023-06-26T14:48:28;5.18;;;3.20;;
45206;SDS011;30950;53.086;21.576;2023-06-26T14:50:56;4.40;;;2.95;;
45206;SDS011;30950;53.086;21.576;2023-06-26T14:53:24;5.25;;;2.90;;
45206;SDS011;30950;53.086;21.576;2023-06-26T14:55:54;6.70;;;3.30;;
45206;SDS011;30950;53.086;21.576;2023-06-26T14:58:21;4.28;;;3.05;;
45206;SDS011;30950;53.086;21.576;2023-06-26T15:00:49;4.28;;;3.10;;
45206;SDS011;30950;53.086;21.576;2023-06-26T15:03:17;4.72;;;3.45;;
45206;SDS011;30950;53.086;21.576;2023-06-26T15:05:45;4.38;;;3.13;;